Altamonte Springs, FL

12:19 PM EST on February 09, 2016 (GMT -0500)
Sanlando | | Change Station
CLOSE
Current Station
Personal Weather Station
Location: Altamonte Springs, FL
Elevation: 112 ft
Nearby Weather Stations
Active Advisory: Wind Advisory

Elev 112 ft 28.68 °N, 81.37 °W | Updated 27 seconds ago

Partly Cloudy
Partly Cloudy
55.8 °F
Feels Like 55.8 °F
N
3.4
Wind Variable Wind from NW
Gusts 4.9 mph

Today
High -- | Low -- °F
--% Chance of Precip.
Yesterday
High -- | Low -- °F
Precip. -- in
Pressure 30.03 in
Visibility 10.0 miles
Clouds Scattered Clouds 5500 ft
Dew Point 33 °F
Humidity 42%
Rainfall 0.00 in
Snow Depth Not available.
7:08 AM 6:10 PM
New Moon, 2% visible
METAR KORL 091653Z 24012G18KT 10SM SCT055 14/M01 A3002 RMK AO2 SLP169 T01391006
Pressure 30.03 in
Visibility 10.0 miles
Clouds Scattered Clouds 5500 ft
Dew Point 33 °F
Humidity 42%
Rainfall 0.00 in
Snow Depth Not available.
7:08 AM 6:10 PM
New Moon, 2% visible
METAR KORL 091653Z 24012G18KT 10SM SCT055 14/M01 A3002 RMK AO2 SLP169 T01391006

10-Day Weather Forecast

Almanac

Astronomy

Feb. 09, 2016 Rise Set
Actual Time
Civil Twilight
Nautical Twilight
Astronomical Twilight
Moon
Length of Visible Light
Length of Day
Tomorrow will be .
, % of the Moon is Illuminated

Today's Extremes

State Highs State Lows

Community

WunderPhotos

Upload Photos

1,891,636 photos uploaded!

WunderBlog® & News

Nearby

Air Quality

  Air Quality AQ Index Pollutant
Not available.

Snow Depth

Station Depth Elevation

Earthquake Activity

City Distance Mag. Time & Date
Minimum magnitude displayed is 2.5.

Coastal Water Temperatures

Place Temperature

Stations

Nearby Weather Stations

Station Location Temp. Windchill Dew Point Humidity Wind Precip. Elev Updated Type
                   

Watches & Warnings

Wind Advisory
Issued: 4:20 AM EST Feb. 9, 2016 – National Weather Service

... Wind Advisory in effect from 11 am this morning to 6 PM EST
this evening...

The National Weather Service in Melbourne has issued a Wind
Advisory... which is in effect from 11 am this morning to 6 PM EST
this evening.

* Winds... west winds 20 to 25 mph with gusts 35 to 40 mph in the
late morning and afternoon.

* Impacts... the windy conditions will make it difficult for high
profile or light weight vehicles to drive... especially on
bridges and overpasses. Light to moderate weight items... such as
lawn furniture and empty trash cans will be blown around. Small
tree limbs could be snapped and knocked down.

Precautionary/preparedness actions...

A Wind Advisory means that sustained winds of 25 to 39 mph are
expected. Winds this strong can make driving difficult... especially
for high profile vehicles. Use extra caution. Also... boating on
inland waters will be very hazardous.



Weitlich